Time;durP1;ratioP1;P1;durP2;ratioP2;P2;SDS_P1;SDS_P2;PMS_P1;PMS_P2;Temp;Humidity;BMP_temperature;BMP_pressure;BME280_temperature;BME280_humidity;BME280_pressure;Samples;Min_cycle;Max_cycle;Signal;HPM_P1;HPM_P2
2022/03/14 00:02:35;;;;;;;34.30;16.90;;;;;;;-0.04;60.36;101065.27;213111;1274;140222;-67
2022/03/14 00:07:41;;;;;;;29.20;13.50;;;;;;;-0.08;60.43;101072.96;214586;1274;140962;-68
2022/03/14 00:12:48;;;;;;;27.90;17.00;;;;;;;-0.17;60.84;101072.34;214282;1274;140118;-68
2022/03/14 00:17:53;;;;;;;32.00;14.20;;;;;;;-0.25;61.08;101079.50;213839;1274;140946;-75
2022/03/14 00:22:59;;;;;;;28.10;14.40;;;;;;;-0.32;61.10;101075.23;214028;1274;140588;-69
2022/03/14 00:28:04;;;;;;;25.40;15.00;;;;;;;-0.39;61.40;101074.27;213854;1274;140861;-72
2022/03/14 00:33:08;;;;;;;23.30;15.20;;;;;;;-0.47;61.50;101073.54;214651;1274;140410;-72
2022/03/14 00:38:12;;;;;;;29.20;15.60;;;;;;;-0.56;61.53;101073.27;214872;1273;141460;-70
2022/03/14 00:43:16;;;;;;;28.80;14.90;;;;;;;-0.60;61.92;101074.84;214593;1275;141084;-70
2022/03/14 00:48:19;;;;;;;32.70;16.90;;;;;;;-0.63;62.16;101068.51;215612;1274;141819;-72
2022/03/14 00:53:23;;;;;;;24.60;13.70;;;;;;;-0.69;62.45;101065.00;216091;1274;139942;-64
2022/03/14 00:58:27;;;;;;;26.10;15.40;;;;;;;-0.72;62.57;101066.59;216219;1274;229467;-72
2022/03/14 01:03:31;;;;;;;32.90;16.00;;;;;;;-0.72;62.77;101064.04;215036;1274;140478;-73
2022/03/14 01:08:36;;;;;;;24.30;14.40;;;;;;;-0.77;62.69;101063.88;216153;1274;142084;-75
2022/03/14 01:13:41;;;;;;;24.90;16.20;;;;;;;-0.79;62.67;101065.30;215287;1274;139721;-72
2022/03/14 01:18:45;;;;;;;29.20;15.90;;;;;;;-0.82;62.63;101060.84;215247;1274;140894;-74
2022/03/14 01:23:50;;;;;;;26.10;14.40;;;;;;;-0.87;62.98;101062.52;215465;1274;140315;-71
2022/03/14 01:28:54;;;;;;;22.70;15.00;;;;;;;-0.90;62.89;101061.53;214017;1274;140565;-75
2022/03/14 01:33:59;;;;;;;26.50;16.20;;;;;;;-0.93;63.01;101064.06;213352;1274;142068;-73
2022/03/14 01:39:06;;;;;;;25.00;15.50;;;;;;;-0.95;63.13;101067.55;213720;1274;143915;-66
2022/03/14 01:44:11;;;;;;;31.10;18.60;;;;;;;-1.02;63.28;101069.13;213943;1274;142093;-70
2022/03/14 01:49:18;;;;;;;27.70;15.40;;;;;;;-1.09;63.51;101078.58;215144;1274;141458;-66
2022/03/14 01:54:23;;;;;;;27.20;16.60;;;;;;;-1.14;63.53;101082.86;213689;1274;141519;-73
2022/03/14 01:59:29;;;;;;;26.60;17.40;;;;;;;-1.20;63.80;101081.44;214895;1274;140182;-74
2022/03/14 02:04:33;;;;;;;25.40;15.50;;;;;;;-1.28;63.93;101076.52;213930;1274;139828;-70
2022/03/14 02:09:37;;;;;;;32.20;15.90;;;;;;;-1.36;64.22;101081.02;213865;1274;140906;-68
2022/03/14 02:14:42;;;;;;;34.20;19.30;;;;;;;-1.40;64.18;101086.27;215165;1274;231309;-70
2022/03/14 02:19:46;;;;;;;25.90;16.90;;;;;;;-1.46;64.42;101089.53;213488;1274;140849;-71
2022/03/14 02:24:50;;;;;;;31.80;16.10;;;;;;;-1.53;64.65;101093.22;213215;1274;143057;-71
2022/03/14 02:29:54;;;;;;;30.20;18.10;;;;;;;-1.57;64.86;101093.45;214053;1275;670739;-73
2022/03/14 02:34:59;;;;;;;39.00;17.20;;;;;;;-1.64;64.99;101092.08;213311;1276;141188;-68
2022/03/14 02:40:06;;;;;;;32.60;16.90;;;;;;;-1.67;65.24;101096.52;215086;1276;165960;-69
2022/03/14 02:45:10;;;;;;;31.30;17.60;;;;;;;-1.69;65.41;101101.35;215064;1277;143036;-71
2022/03/14 02:50:14;;;;;;;31.40;14.70;;;;;;;-1.74;65.53;101102.54;215106;1276;141340;-69
2022/03/14 02:55:23;;;;;;;32.70;17.20;;;;;;;-1.73;65.46;101104.95;215966;1276;141546;-72
2022/03/14 03:00:28;;;;;;;32.10;17.60;;;;;;;-1.77;65.65;101108.09;215885;1275;143179;-74
2022/03/14 03:05:32;;;;;;;27.70;15.10;;;;;;;-1.79;65.61;101109.56;215984;1275;141241;-74
2022/03/14 03:10:36;;;;;;;33.70;16.70;;;;;;;-1.76;65.80;101111.65;215793;1275;142325;-73
2022/03/14 03:15:41;;;;;;;28.00;16.10;;;;;;;-1.74;65.72;101111.15;214089;1275;141388;-72
2022/03/14 03:20:46;;;;;;;27.40;15.10;;;;;;;-1.74;65.92;101119.30;215303;1274;140311;-71
2022/03/14 03:25:50;;;;;;;23.00;15.50;;;;;;;-1.79;65.85;101125.47;214806;1274;140245;-71
2022/03/14 03:30:54;;;;;;;23.10;14.20;;;;;;;-1.80;65.88;101134.95;214630;1274;141134;-74
2022/03/14 03:35:59;;;;;;;28.50;14.80;;;;;;;-1.87;66.14;101136.06;214454;1274;141262;-77
2022/03/14 03:41:04;;;;;;;22.50;13.50;;;;;;;-1.90;66.28;101137.82;213664;1276;140349;-76
2022/03/14 03:46:08;;;;;;;35.60;16.60;;;;;;;-1.89;66.11;101138.17;214311;1275;140541;-76
2022/03/14 03:51:13;;;;;;;34.70;18.50;;;;;;;-1.91;66.24;101138.16;214326;1274;140546;-68
2022/03/14 03:56:18;;;;;;;29.40;15.60;;;;;;;-1.90;66.30;101143.98;214313;1277;140735;-75
2022/03/14 04:01:23;;;;;;;30.30;17.50;;;;;;;-1.93;66.24;101147.66;213678;1276;142003;-69
2022/03/14 04:06:30;;;;;;;30.50;17.30;;;;;;;-1.94;66.30;101153.00;213463;1277;140641;-73
2022/03/14 04:11:41;;;;;;;26.90;15.60;;;;;;;-1.97;66.66;101152.66;213648;1276;142426;-75
2022/03/14 04:16:45;;;;;;;36.30;18.10;;;;;;;-1.99;66.63;101154.26;213596;1275;141644;-69
2022/03/14 04:21:52;;;;;;;38.20;18.50;;;;;;;-2.04;66.72;101151.16;213597;1274;140734;-74
2022/03/14 04:26:57;;;;;;;28.80;16.00;;;;;;;-2.07;66.75;101146.81;214179;1276;142621;-69
2022/03/14 04:32:02;;;;;;;27.00;15.60;;;;;;;-2.11;66.90;101145.58;214270;1274;140621;-70
2022/03/14 04:37:07;;;;;;;29.70;16.20;;;;;;;-2.13;67.13;101145.75;214931;1274;140179;-70
2022/03/14 04:42:15;;;;;;;33.10;16.20;;;;;;;-2.10;67.00;101146.17;214468;1276;141269;-70
2022/03/14 04:47:20;;;;;;;44.40;23.80;;;;;;;-2.09;67.06;101154.67;215510;1276;141160;-72
2022/03/14 04:52:24;;;;;;;30.30;16.40;;;;;;;-2.06;67.20;101151.95;214066;1276;141137;-75
2022/03/14 04:57:31;;;;;;;29.00;18.30;;;;;;;-2.03;67.05;101155.59;215462;1276;141305;-72
2022/03/14 05:02:35;;;;;;;28.30;16.90;;;;;;;-2.05;67.17;101154.16;215947;1275;140225;-72
2022/03/14 05:07:41;;;;;;;27.80;15.20;;;;;;;-2.03;67.14;101154.70;215216;1275;140968;-73
2022/03/14 05:12:45;;;;;;;35.10;16.20;;;;;;;-2.04;67.25;101160.86;215754;1275;140808;-76
2022/03/14 05:17:52;;;;;;;28.70;15.20;;;;;;;-1.99;67.09;101157.74;215687;1274;140694;-76
2022/03/14 05:22:57;;;;;;;33.10;20.70;;;;;;;-1.93;67.23;101160.89;215360;1274;140561;-73
2022/03/14 05:28:02;;;;;;;30.30;15.10;;;;;;;-1.86;67.26;101158.33;214660;1274;141106;-66
2022/03/14 05:33:06;;;;;;;29.70;19.30;;;;;;;-1.83;67.00;101162.69;215627;1274;141628;-71
2022/03/14 05:38:10;;;;;;;30.20;17.00;;;;;;;-1.81;67.14;101170.39;214207;1274;141716;-71
2022/03/14 05:43:13;;;;;;;30.90;16.30;;;;;;;-1.72;67.10;101168.48;214470;1274;141405;-71
2022/03/14 05:48:17;;;;;;;22.10;15.40;;;;;;;-1.66;67.13;101176.73;214309;1274;141731;-73
2022/03/14 05:53:21;;;;;;;33.90;16.60;;;;;;;-1.56;67.15;101185.41;214054;1274;141465;-78
2022/03/14 05:58:26;;;;;;;22.60;15.60;;;;;;;-1.47;67.22;101188.11;213271;1274;141774;-69
2022/03/14 06:03:30;;;;;;;33.90;17.40;;;;;;;-1.37;67.31;101185.39;215432;1274;150514;-77
2022/03/14 06:08:35;;;;;;;34.10;18.20;;;;;;;-1.22;66.90;101188.34;213821;1276;141402;-76
2022/03/14 06:13:39;;;;;;;32.00;19.00;;;;;;;-1.09;66.98;101190.58;213682;1274;141484;-78
2022/03/14 06:18:44;;;;;;;35.50;20.30;;;;;;;-0.92;66.81;101198.33;213357;1274;141485;-75
2022/03/14 06:23:47;;;;;;;35.70;19.90;;;;;;;-0.79;66.55;101203.33;214205;1274;139970;-66
2022/03/14 06:28:51;;;;;;;29.00;16.50;;;;;;;-0.63;66.69;101207.11;213499;1274;141088;-75
2022/03/14 06:33:55;;;;;;;38.00;20.80;;;;;;;-0.47;66.42;101210.77;213897;1274;141487;-71
2022/03/14 06:38:59;;;;;;;36.70;21.80;;;;;;;-0.31;66.08;101214.60;213186;1274;145315;-74
2022/03/14 06:44:03;;;;;;;42.70;21.10;;;;;;;-0.18;66.12;101213.44;213577;1274;141117;-73
2022/03/14 06:49:07;;;;;;;34.00;19.20;;;;;;;-0.02;65.71;101211.90;213682;1274;142070;-75
2022/03/14 06:54:11;;;;;;;28.30;19.50;;;;;;;0.14;65.73;101208.58;215016;1273;140766;-74
2022/03/14 06:59:15;;;;;;;36.00;19.00;;;;;;;0.36;65.41;101209.27;213456;1274;140427;-78
2022/03/14 07:04:20;;;;;;;36.50;20.20;;;;;;;0.82;64.80;101216.79;214521;1274;140365;-77
2022/03/14 07:09:23;;;;;;;34.50;21.30;;;;;;;1.20;64.16;101221.45;215330;1274;141605;-78
2022/03/14 07:14:27;;;;;;;28.90;19.50;;;;;;;1.56;63.99;101230.81;215178;1274;140555;-77
2022/03/14 07:19:32;;;;;;;33.40;19.80;;;;;;;2.62;63.54;101224.94;214975;1274;141098;-79
2022/03/14 07:24:36;;;;;;;38.20;22.90;;;;;;;4.33;62.26;101225.39;213608;1274;151974;-77
2022/03/14 07:29:40;;;;;;;37.70;20.70;;;;;;;5.98;60.34;101217.14;214741;1274;140881;-71
2022/03/14 07:34:48;;;;;;;35.50;21.30;;;;;;;7.25;58.11;101214.33;214317;1274;141262;-76
2022/03/14 07:39:52;;;;;;;33.30;20.60;;;;;;;7.85;56.14;101213.66;214074;1274;140728;-76
2022/03/14 07:44:56;;;;;;;34.00;20.50;;;;;;;8.37;53.95;101212.20;213350;1274;140239;-70
2022/03/14 07:49:59;;;;;;;31.90;20.70;;;;;;;8.28;52.95;101208.80;214363;1274;140737;-79
2022/03/14 07:55:07;;;;;;;37.10;19.90;;;;;;;8.23;52.74;101206.59;214861;1274;140321;-80
2022/03/14 08:00:13;;;;;;;33.10;20.40;;;;;;;8.47;52.56;101215.38;214067;1274;140996;-78
2022/03/14 08:05:23;;;;;;;35.50;20.10;;;;;;;8.25;51.35;101217.80;214656;1274;140947;-71
2022/03/14 08:10:29;;;;;;;36.60;21.00;;;;;;;8.05;51.17;101224.52;213686;1274;139706;-70
2022/03/14 08:15:34;;;;;;;29.70;18.60;;;;;;;8.13;51.70;101219.49;213303;1274;140445;-68
2022/03/14 08:20:38;;;;;;;31.00;19.00;;;;;;;8.18;51.96;101225.91;213342;1274;141710;-70
2022/03/14 08:25:42;;;;;;;28.80;16.00;;;;;;;8.21;51.00;101229.30;213854;1274;141971;-66
2022/03/14 08:30:48;;;;;;;34.90;18.70;;;;;;;8.22;50.64;101224.77;213202;1274;140415;-71
2022/03/14 08:35:53;;;;;;;34.50;20.20;;;;;;;8.19;50.26;101221.79;213872;1274;139695;-74
2022/03/14 08:41:01;;;;;;;35.50;23.30;;;;;;;8.07;50.31;101224.30;213930;1274;140616;-70
2022/03/14 08:46:06;;;;;;;32.10;19.60;;;;;;;7.82;49.99;101222.98;213206;1274;141132;-72
2022/03/14 08:51:13;;;;;;;28.70;19.70;;;;;;;8.03;50.44;101218.89;214939;1274;140626;-79
2022/03/14 08:56:17;;;;;;;34.40;22.60;;;;;;;8.22;50.15;101209.41;213388;1274;139845;-74
2022/03/14 09:01:21;;;;;;;36.20;22.50;;;;;;;8.17;49.33;101209.09;214663;1274;140659;-73
2022/03/14 09:06:26;;;;;;;34.00;19.70;;;;;;;8.18;49.82;101204.66;215663;1274;140108;-74
2022/03/14 09:11:31;;;;;;;33.30;19.30;;;;;;;8.62;49.95;101203.29;215606;1273;140367;-73
2022/03/14 09:16:35;;;;;;;24.20;16.40;;;;;;;8.94;48.98;101209.42;216143;1274;140594;-73
2022/03/14 09:21:46;;;;;;;28.60;17.60;;;;;;;9.15;48.88;101211.53;215903;1274;142291;-72
2022/03/14 09:26:50;;;;;;;34.80;21.20;;;;;;;9.36;48.61;101215.75;215997;1273;162772;-70
2022/03/14 09:31:56;;;;;;;32.60;20.60;;;;;;;9.40;47.98;101215.83;216156;1273;141656;-72
2022/03/14 09:37:02;;;;;;;30.40;19.70;;;;;;;9.58;47.99;101214.46;215290;1272;140934;-73
2022/03/14 09:42:10;;;;;;;32.80;20.50;;;;;;;9.75;47.57;101210.64;215002;1273;141236;-73
2022/03/14 09:47:15;;;;;;;30.70;19.90;;;;;;;9.89;47.00;101209.34;214843;1273;140812;-71
2022/03/14 09:52:21;;;;;;;33.00;20.80;;;;;;;10.08;46.76;101220.20;214664;1273;141035;-73
2022/03/14 09:57:27;;;;;;;43.60;25.60;;;;;;;10.28;46.62;101214.05;214409;1273;141845;-75
2022/03/14 10:02:31;;;;;;;31.00;18.80;;;;;;;10.41;46.25;101213.81;214588;1273;141593;-72
2022/03/14 10:07:35;;;;;;;33.30;22.30;;;;;;;10.43;45.55;101213.50;214717;1273;142221;-74
2022/03/14 10:12:41;;;;;;;28.90;21.30;;;;;;;10.47;45.65;101213.97;214774;1273;141502;-71
2022/03/14 10:17:46;;;;;;;31.50;22.10;;;;;;;10.60;45.09;101215.27;213390;1274;141497;-74
2022/03/14 10:22:51;;;;;;;31.80;20.50;;;;;;;10.67;44.82;101218.96;213792;1273;140103;-72
2022/03/14 10:27:55;;;;;;;33.90;22.40;;;;;;;10.70;44.09;101218.05;214332;1273;140502;-70
2022/03/14 10:33:09;;;;;;;29.90;19.80;;;;;;;10.84;44.03;101212.40;213446;1273;141240;-77
2022/03/14 10:38:16;;;;;;;30.80;19.80;;;;;;;11.07;43.92;101209.05;213443;1273;141577;-73
2022/03/14 10:43:30;;;;;;;31.10;20.00;;;;;;;11.14;42.71;101207.27;213153;1273;141363;-77
2022/03/14 10:48:43;;;;;;;37.70;19.70;;;;;;;11.16;42.70;101197.04;214337;1273;142144;-76
2022/03/14 10:53:49;;;;;;;28.30;18.90;;;;;;;11.26;42.33;101189.06;213486;1273;143626;-76
2022/03/14 10:58:56;;;;;;;27.10;18.00;;;;;;;11.50;42.40;101180.94;213324;1273;142524;-77
2022/03/14 11:04:00;;;;;;;;;;;;;;;11.69;41.66;101175.24;214487;1273;160237;-79
2022/03/14 11:09:05;;;;;;;26.90;16.60;;;;;;;11.85;41.25;101175.11;215835;1274;126474;-79
2022/03/14 11:14:13;;;;;;;32.40;18.10;;;;;;;12.05;41.02;101170.37;214469;1273;140746;-79
2022/03/14 11:19:18;;;;;;;23.90;19.20;;;;;;;12.21;40.44;101167.08;214647;1273;141814;-80
2022/03/14 11:24:22;;;;;;;36.00;19.80;;;;;;;12.22;40.26;101163.01;215337;1274;141735;-79
2022/03/14 11:29:29;;;;;;;27.90;15.30;;;;;;;12.26;40.06;101153.02;215079;1274;140608;-78
2022/03/14 11:34:35;;;;;;;32.60;21.70;;;;;;;12.45;40.15;101147.54;215791;1274;140799;-79
2022/03/14 11:39:40;;;;;;;25.00;18.80;;;;;;;12.48;39.22;101143.37;213910;1274;143866;-77
2022/03/14 11:44:47;;;;;;;24.30;17.40;;;;;;;12.51;39.50;101136.27;215287;1274;140592;-79
2022/03/14 11:49:51;;;;;;;28.20;19.10;;;;;;;12.70;39.60;101136.46;215818;1274;140758;-78
2022/03/14 11:55:00;;;;;;;26.50;16.60;;;;;;;12.76;39.10;101126.10;215542;1274;140698;-81
2022/03/14 12:00:24;;;;;;;22.00;15.10;;;;;;;12.78;39.07;101116.70;214316;1274;144099;-77
2022/03/14 12:05:31;;;;;;;26.70;19.90;;;;;;;12.82;37.92;101117.38;213881;1274;142999;-78
2022/03/14 12:10:36;;;;;;;23.40;16.10;;;;;;;12.64;37.82;101118.13;215272;1274;141330;-80
2022/03/14 12:15:42;;;;;;;23.70;17.40;;;;;;;12.66;37.76;101113.43;214736;1274;143647;-79
2022/03/14 12:20:48;;;;;;;23.70;14.70;;;;;;;12.65;37.40;101104.14;213958;1274;164146;-77
2022/03/14 12:25:57;;;;;;;25.50;17.40;;;;;;;12.63;36.75;101094.23;213649;1274;141167;-72
2022/03/14 12:31:05;;;;;;;25.80;16.20;;;;;;;12.56;36.87;101088.74;213953;1274;141653;-78
2022/03/14 12:36:24;;;;;;;28.10;14.60;;;;;;;12.65;36.82;101079.27;213826;1274;141505;-78
2022/03/14 12:41:28;;;;;;;19.20;13.70;;;;;;;12.79;36.40;101079.65;214852;1274;142002;-77
2022/03/14 12:46:33;;;;;;;22.60;13.40;;;;;;;12.82;36.12;101083.01;214043;1274;141357;-71
2022/03/14 12:51:39;;;;;;;17.60;12.70;;;;;;;12.82;35.38;101080.61;214013;1274;141083;-77
2022/03/14 12:56:44;;;;;;;18.50;11.70;;;;;;;12.85;35.10;101080.45;213676;1274;142067;-76
2022/03/14 13:01:50;;;;;;;38.10;20.70;;;;;;;12.87;35.23;101077.98;213767;1274;141362;-77
2022/03/14 13:06:59;;;;;;;20.00;11.10;;;;;;;13.00;35.18;101077.39;214289;1274;141185;-76
2022/03/14 13:12:20;;;;;;;12.90;9.60;;;;;;;13.01;34.54;101075.86;214483;1273;141743;-76
2022/03/14 13:17:27;;;;;;;10.10;8.30;;;;;;;12.95;33.68;101072.89;214190;1274;142221;-74
2022/03/14 13:22:34;;;;;;;15.40;9.80;;;;;;;12.80;33.11;101072.52;214783;1274;141220;-76
2022/03/14 13:27:39;;;;;;;11.10;8.60;;;;;;;12.72;33.83;101069.07;215375;1274;141298;-74
2022/03/14 13:32:45;;;;;;;16.30;12.10;;;;;;;12.73;33.38;101074.13;214874;1274;141842;-76
2022/03/14 13:37:51;;;;;;;16.00;11.40;;;;;;;12.66;33.37;101073.84;215467;1274;141932;-76
2022/03/14 13:42:57;;;;;;;17.90;11.30;;;;;;;12.59;33.71;101067.21;216147;1274;142275;-76
2022/03/14 13:48:03;;;;;;;16.00;11.00;;;;;;;12.64;33.70;101065.99;216017;1274;141693;-67
2022/03/14 13:53:07;;;;;;;18.10;12.20;;;;;;;12.58;33.81;101069.04;215028;1274;143072;-76
2022/03/14 13:58:12;;;;;;;18.20;11.70;;;;;;;12.49;33.85;101071.61;214768;1274;141361;-77
2022/03/14 14:03:35;;;;;;;15.20;11.90;;;;;;;12.41;33.63;101079.63;214714;1274;141236;-76
2022/03/14 14:08:41;;;;;;;16.70;11.30;;;;;;;12.33;33.88;101076.48;215204;1274;142071;-77
2022/03/14 14:13:51;;;;;;;18.20;12.10;;;;;;;12.34;34.38;101077.64;215056;1272;142115;-74
2022/03/14 14:19:09;;;;;;;14.70;12.70;;;;;;;12.37;34.69;101078.29;214605;1274;141742;-74
2022/03/14 14:24:13;;;;;;;;;;;;;;;12.33;34.79;101070.45;214438;1274;141615;-77
2022/03/14 14:29:43;;;;;;;13.20;9.70;;;;;;;12.29;35.41;101068.24;213534;1274;549780;-76
2022/03/14 14:34:47;;;;;;;17.40;12.00;;;;;;;12.25;35.16;101066.54;213781;1274;140234;-76
2022/03/14 14:39:52;;;;;;;18.00;11.60;;;;;;;12.10;34.79;101059.70;214228;1274;140003;-77
2022/03/14 14:44:58;;;;;;;13.60;10.20;;;;;;;12.05;34.86;101053.39;213530;1274;141403;-74
2022/03/14 14:50:05;;;;;;;12.50;9.50;;;;;;;12.07;35.51;101054.01;213516;1274;140534;-76
2022/03/14 14:55:11;;;;;;;15.20;9.60;;;;;;;12.05;35.07;101060.46;213373;1274;140605;-74
2022/03/14 15:00:17;;;;;;;9.40;7.20;;;;;;;12.00;35.07;101060.85;213958;1274;140765;-75
2022/03/14 15:05:22;;;;;;;9.10;7.70;;;;;;;11.94;34.95;101060.42;214326;1274;140756;-75
2022/03/14 15:10:27;;;;;;;9.70;7.00;;;;;;;11.87;34.59;101058.00;214363;1274;140484;-74
2022/03/14 15:15:32;;;;;;;9.70;7.00;;;;;;;11.79;34.94;101058.13;214653;1274;139689;-74
2022/03/14 15:20:36;;;;;;;10.40;6.90;;;;;;;11.74;35.07;101054.26;215380;1273;141754;-74
2022/03/14 15:25:42;;;;;;;10.20;6.90;;;;;;;11.68;34.72;101053.40;214753;1274;141078;-73
2022/03/14 15:30:48;;;;;;;15.20;8.10;;;;;;;11.61;34.94;101052.73;214774;1274;142810;-73
2022/03/14 15:35:52;;;;;;;9.60;6.20;;;;;;;11.50;34.89;101046.89;214997;1274;234968;-76
2022/03/14 15:40:59;;;;;;;10.60;7.60;;;;;;;11.37;34.53;101039.41;216112;1274;140071;-75
2022/03/14 15:46:06;;;;;;;11.70;7.00;;;;;;;11.25;34.58;101042.45;216147;1274;141102;-72
2022/03/14 15:51:11;;;;;;;11.50;7.10;;;;;;;11.12;34.88;101040.48;215979;1274;142035;-74
2022/03/14 15:56:19;;;;;;;16.50;7.30;;;;;;;11.01;34.84;101039.27;215966;1274;141287;-74
2022/03/14 16:01:23;;;;;;;12.20;7.00;;;;;;;10.88;35.07;101040.20;215033;1274;140772;-76
2022/03/14 16:06:28;;;;;;;13.70;8.10;;;;;;;10.72;35.24;101047.13;215730;1274;140883;-76
2022/03/14 16:11:32;;;;;;;11.00;7.30;;;;;;;10.55;35.24;101045.27;214235;1274;141007;-73
2022/03/14 16:16:43;;;;;;;9.50;7.20;;;;;;;10.36;35.56;101044.89;213796;1274;233024;-74
2022/03/14 16:21:47;;;;;;;9.30;7.00;;;;;;;10.16;35.45;101034.23;215059;1274;140719;-74
2022/03/14 16:26:51;;;;;;;13.90;7.30;;;;;;;9.96;35.69;101031.98;215457;1274;140421;-75
2022/03/14 16:31:55;;;;;;;16.30;9.10;;;;;;;9.80;35.82;101036.99;215044;1273;140535;-75
2022/03/14 16:36:58;;;;;;;9.90;6.50;;;;;;;9.62;36.25;101046.92;214519;1274;142036;-74
2022/03/14 16:42:04;;;;;;;9.40;7.90;;;;;;;9.46;36.57;101052.33;214360;1274;140059;-75
2022/03/14 16:47:08;;;;;;;9.40;7.50;;;;;;;9.29;37.07;101049.18;214863;1274;140556;-76
2022/03/14 16:52:15;;;;;;;35.00;17.20;;;;;;;9.10;37.24;101051.64;214374;1274;139513;-76
2022/03/14 16:57:19;;;;;;;78.20;37.70;;;;;;;8.92;37.57;101059.73;214173;1274;140469;-76
2022/03/14 17:02:28;;;;;;;55.90;29.00;;;;;;;8.75;37.59;101064.05;213554;1274;140883;-75
2022/03/14 17:07:32;;;;;;;37.70;19.30;;;;;;;8.55;37.82;101067.23;214229;1274;141105;-75
2022/03/14 17:12:37;;;;;;;26.20;14.80;;;;;;;8.35;38.68;101072.09;214287;1274;140799;-69
2022/03/14 17:17:41;;;;;;;18.20;10.50;;;;;;;8.14;38.93;101078.38;214611;1274;141379;-76
2022/03/14 17:22:45;;;;;;;20.80;10.20;;;;;;;7.93;38.89;101080.23;213894;1274;141365;-76
2022/03/14 17:27:48;;;;;;;14.70;8.70;;;;;;;7.66;40.15;101087.73;213295;1274;141913;-68
2022/03/14 17:32:56;;;;;;;26.60;12.50;;;;;;;7.33;40.73;101087.45;214475;1274;250650;-74
2022/03/14 17:38:00;;;;;;;12.50;9.80;;;;;;;7.10;41.29;101102.17;214824;1274;140174;-75
2022/03/14 17:43:06;;;;;;;17.70;9.80;;;;;;;6.87;41.84;101112.60;214338;1274;142016;-74
2022/03/14 17:48:16;;;;;;;16.10;9.00;;;;;;;6.62;41.96;101119.47;214356;1274;139371;-74
2022/03/14 17:53:20;;;;;;;21.20;13.80;;;;;;;6.13;42.29;101119.12;216067;1273;140136;-75
2022/03/14 17:58:25;;;;;;;23.60;12.90;;;;;;;5.88;43.11;101126.87;215432;1274;140839;-74
2022/03/14 18:03:30;;;;;;;25.70;12.30;;;;;;;5.79;43.59;101126.33;215969;1274;139803;-74
2022/03/14 18:08:34;;;;;;;23.20;14.70;;;;;;;5.64;44.19;101130.39;215753;1274;140645;-69
2022/03/14 18:13:39;;;;;;;28.90;14.30;;;;;;;5.52;44.64;101130.02;214397;1275;140731;-73
2022/03/14 18:18:43;;;;;;;28.40;13.80;;;;;;;5.36;44.87;101126.14;213741;1274;140299;-69
2022/03/14 18:23:48;;;;;;;38.90;21.50;;;;;;;5.19;45.56;101128.92;214893;1274;140312;-75
2022/03/14 18:28:58;;;;;;;65.10;31.60;;;;;;;5.04;46.02;101133.14;214154;1275;140629;-73
2022/03/14 18:34:16;;;;;;;73.30;34.10;;;;;;;4.84;46.21;101134.88;214742;1274;140698;-75
2022/03/14 18:39:22;;;;;;;59.60;31.90;;;;;;;4.67;46.87;101136.56;214430;1274;139810;-76
2022/03/14 18:44:45;;;;;;;44.80;20.30;;;;;;;4.52;47.43;101137.23;214961;1274;141462;-77
2022/03/14 18:49:49;;;;;;;36.90;17.80;;;;;;;4.33;47.25;101134.97;214623;1274;141259;-75
2022/03/14 18:54:54;;;;;;;36.90;21.60;;;;;;;4.18;47.86;101136.20;213570;1274;140442;-75
2022/03/14 18:59:58;;;;;;;56.30;30.20;;;;;;;4.05;47.93;101137.23;214049;1274;140693;-76
2022/03/14 19:05:03;;;;;;;65.30;33.20;;;;;;;3.90;48.56;101139.14;214773;1275;140626;-72
2022/03/14 19:10:08;;;;;;;50.20;29.40;;;;;;;3.77;49.10;101138.59;214300;1274;139755;-77
2022/03/14 19:15:13;;;;;;;46.30;26.40;;;;;;;3.66;49.66;101134.91;214627;1273;140182;-75
2022/03/14 19:20:18;;;;;;;44.40;26.30;;;;;;;3.56;50.09;101136.27;214837;1274;150167;-78
2022/03/14 19:25:22;;;;;;;54.70;28.90;;;;;;;3.52;50.24;101138.30;214217;1274;140816;-76
2022/03/14 19:30:48;;;;;;;85.20;34.60;;;;;;;3.41;50.92;101135.67;213118;1274;142805;-75
2022/03/14 19:35:57;;;;;;;48.90;27.50;;;;;;;3.31;51.16;101135.13;214784;1274;139694;-75
2022/03/14 19:41:03;;;;;;;45.70;26.70;;;;;;;3.27;51.31;101129.61;213754;1274;140177;-74
2022/03/14 19:46:07;;;;;;;45.10;25.40;;;;;;;3.24;51.42;101126.20;214855;1273;139551;-77
2022/03/14 19:51:12;;;;;;;50.20;28.50;;;;;;;3.28;51.41;101131.21;214823;1274;139994;-74
2022/03/14 19:56:17;;;;;;;54.30;31.90;;;;;;;3.40;51.47;101130.39;214733;1274;139562;-76
2022/03/14 20:01:25;;;;;;;49.20;28.30;;;;;;;3.52;51.45;101134.10;216136;1274;140244;-76
2022/03/14 20:06:32;;;;;;;55.80;28.10;;;;;;;3.60;51.33;101134.36;215807;1274;139824;-77
2022/03/14 20:11:37;;;;;;;52.70;30.60;;;;;;;3.62;51.14;101129.89;215831;1274;140823;-75
2022/03/14 20:16:42;;;;;;;45.70;28.80;;;;;;;3.57;50.97;101125.64;214396;1274;140610;-73
2022/03/14 20:21:48;;;;;;;67.10;34.20;;;;;;;3.50;51.20;101125.89;214963;1274;140301;-74
2022/03/14 20:26:54;;;;;;;49.10;28.40;;;;;;;3.36;51.28;101121.86;215277;1274;140106;-75
2022/03/14 20:31:59;;;;;;;64.10;35.70;;;;;;;3.23;51.42;101124.67;214914;1274;139849;-75
2022/03/14 20:37:05;;;;;;;69.80;37.00;;;;;;;3.16;51.53;101126.65;214551;1274;140503;-74
2022/03/14 20:42:14;;;;;;;77.50;40.40;;;;;;;3.09;51.80;101126.83;214697;1274;143208;-66
2022/03/14 20:47:22;;;;;;;69.10;40.20;;;;;;;3.00;51.83;101129.80;213670;1274;140684;-69
2022/03/14 20:52:26;;;;;;;82.10;42.80;;;;;;;2.94;51.80;101130.92;213854;1273;142170;-68
2022/03/14 20:57:31;;;;;;;75.00;40.00;;;;;;;2.90;52.05;101133.81;214923;1274;139676;-73
2022/03/14 21:07:57;;;;;;;58.30;31.20;;;;;;;2.73;52.44;101127.96;214016;1274;142866;-72
2022/03/14 21:13:02;;;;;;;61.90;34.70;;;;;;;2.59;52.42;101127.23;213553;1273;141613;-74
2022/03/14 21:18:06;;;;;;;71.50;36.60;;;;;;;2.49;53.11;101132.80;214164;1274;140142;-73
2022/03/14 21:23:12;;;;;;;69.60;33.50;;;;;;;2.45;53.06;101139.78;213974;1273;141084;-75
2022/03/14 21:28:19;;;;;;;62.20;33.30;;;;;;;2.45;53.23;101139.44;214360;1273;141876;-74
2022/03/14 21:33:24;;;;;;;58.80;30.90;;;;;;;2.41;53.49;101138.45;214360;1273;141943;-75
2022/03/14 21:38:28;;;;;;;47.90;28.70;;;;;;;2.35;53.31;101133.95;214732;1274;234477;-74
2022/03/14 21:43:34;;;;;;;56.80;27.10;;;;;;;2.32;53.24;101132.66;214080;1272;140446;-73
2022/03/14 21:48:39;;;;;;;46.60;25.00;;;;;;;2.25;53.58;101128.87;214387;1273;139618;-77
2022/03/14 21:53:43;;;;;;;50.50;27.30;;;;;;;2.13;53.70;101123.27;215137;1272;140479;-72
2022/03/14 21:58:50;;;;;;;53.60;27.50;;;;;;;2.01;53.77;101123.20;215401;1274;140439;-79
2022/03/14 22:03:56;;;;;;;58.30;32.70;;;;;;;1.85;54.05;101124.74;214348;1273;140411;-77
2022/03/14 22:09:01;;;;;;;55.90;32.50;;;;;;;1.77;54.62;101130.40;215628;1273;140526;-78
2022/03/14 22:14:06;;;;;;;48.60;25.30;;;;;;;1.68;54.94;101130.84;216129;1273;140155;-79
2022/03/14 22:19:10;;;;;;;61.10;28.10;;;;;;;1.51;55.03;101133.64;215863;1274;140032;-76
2022/03/14 22:24:14;;;;;;;51.40;30.70;;;;;;;1.28;55.18;101135.57;215268;1273;140780;-71
2022/03/14 22:29:18;;;;;;;48.50;26.60;;;;;;;1.14;55.51;101144.80;216106;1273;142041;-73
2022/03/14 22:34:23;;;;;;;52.00;29.60;;;;;;;0.99;55.73;101146.81;213761;1273;140131;-71
2022/03/14 22:39:28;;;;;;;52.10;30.30;;;;;;;0.97;56.04;101156.32;215463;1273;140533;-75
2022/03/14 22:44:34;;;;;;;55.30;24.50;;;;;;;0.84;55.94;101160.47;213892;1273;142652;-75
2022/03/14 22:49:38;;;;;;;46.20;27.10;;;;;;;0.65;56.70;101159.69;214367;1274;140812;-70
2022/03/14 22:54:44;;;;;;;49.80;26.40;;;;;;;0.53;57.07;101165.02;214909;1273;140031;-76